CPZ9 weather

Toronto/City Centre Seaplane Base
Toronto, Ontario, Canada

Public forecast

Using degrees Celsius for public forecast. Weather courtesy of forecast.io.

METAR (pilot weather report)

Closest report is Billy Bishop Toronto City Centre Airport, 0.3 nm (0.6 km) SSW. Retrieved 2019/05/24 11:00 UTC (41 minutes ago):

CYTZ 241100Z AUTO 31011G18KT 9SM CLR RMK T MISG TD MISG DENSITY ALT MISG

TAF (pilot weather forecast)

Closest forecast is Billy Bishop Toronto City Centre Airport, 0.3 nm (0.6 km) SSW. Retrieved 2019/05/24 08:57 UTC (3 hours ago):

TAF CYTZ 240745Z 2408/2508 30010KT P6SM FEW015 TEMPO 2408/2416 BKN015 FM241600 31010KT P6SM BKN030 TEMPO 2416/2422 SCT030 FM242300 VRB03KT P6SM BKN040 OVC140 BECMG 2502/2503 19005KT FM250600 18005KT 6SM -SHRA BR SCT015 OVC040 RMK FCST BASED ON AUTO OBS. NXT FCST BY 241400Z